Strona główna
METAR-TAF:

METAR-TAF

Lotnisko :

Port lotniczy Marka

Amman, Jordania

Szerokość geograficzna: 31-59N, Długość geograficzna: 035-59E, wysokość: 767 m

Aktualna obserwacja pogody

Raport powstał 18 minut temu, godzina 06:00 UTC
Cisza
Temperatura 9°C
Wilgotność 87%
Ciśnienie 1020 hPa
Widzialność: 4000 m
zmętnienie

METAR: OJAM 100600Z 00000KT 4000 HZ NSC 09/07 Q1020 NOSIG

czas: 08:18 (06:18 UTC)

Prognoza

Raport powstał 1 godzina i 28 minut temu, godzina 04:50 UTC
Prognoza ważna od 10 godzina 06 UTC do 11 godzina 12 UTC
Wiatr 6 kt od zachodnio-południowy zachód
Widzialność: 5000 m
Mało chmury na wysokości 3000 ft
zmętnienie
Prawdopodobieństwo 40%
od 10 godzina 22 UTC do 11 godzina 06 UTC
Widzialność: 3000 m
Mało chmury na wysokości 3000 ft
zamglenie

TAF: OJAM 100450Z 1006/1112 24006KT 5000 HZ FEW030 PROB40 1022/1106 3000 BR FEW030

Obserwacja i prognoza pogody dla ponad 4000 lotnisk (raport METAR i TAF).

Dostępne stacje oznaczono żółtymi i czerwonymi punktami na mapie.

Najedź kursorem aby zobaczyć nazwę stacji.

Kliknij aby zobaczyć obserwacje i prognozy pogody.

Aby zmienić mapę: kliknij na zielony przycisk z czarnym krzyżykiem, aby powiększyć; na zielony przycisk z myślnikiem, aby pomniejszyć; na zielone strzałki, aby przejść do map sąsiednich.


METAR-TAF: